createdAt,value
2023-06-25T00:01:50.532Z,67.35
2023-06-25T00:04:17.296Z,67.56
2023-06-25T00:06:43.962Z,67.83
2023-06-25T00:09:10.658Z,67.49
2023-06-25T00:11:37.292Z,67.71
2023-06-25T00:14:04.844Z,68.07
2023-06-25T00:16:31.521Z,67.92
2023-06-25T00:18:58.157Z,68.18
2023-06-25T00:21:24.899Z,68.28
2023-06-25T00:23:51.539Z,68.33
2023-06-25T00:26:18.357Z,68.47
2023-06-25T00:28:45.985Z,68.93
2023-06-25T00:31:15.727Z,69.34
2023-06-25T00:33:45.129Z,69.25
2023-06-25T00:36:11.798Z,69.72
2023-06-25T00:38:40.356Z,69.87
2023-06-25T00:41:09.863Z,69.63
2023-06-25T00:43:42.305Z,69.31
2023-06-25T00:46:13.967Z,69.94
2023-06-25T00:48:47.143Z,69.79
2023-06-25T00:51:19.179Z,69.92
2023-06-25T00:53:46.612Z,69.96
2023-06-25T00:56:13.522Z,69.64
2023-06-25T00:58:40.917Z,70.00
2023-06-25T01:01:16.872Z,69.84
2023-06-25T01:03:55.868Z,70.52
2023-06-25T01:06:30.627Z,70.69
2023-06-25T01:09:01.069Z,70.77
2023-06-25T01:11:29.620Z,70.53
2023-06-25T01:13:56.532Z,70.90
2023-06-25T01:16:23.534Z,70.79
2023-06-25T01:19:03.296Z,70.81
2023-06-25T01:21:31.922Z,70.90
2023-06-25T01:23:58.765Z,71.77
2023-06-25T01:26:25.364Z,70.71
2023-06-25T01:28:56.661Z,71.48
2023-06-25T01:31:25.885Z,71.22
2023-06-25T01:33:53.079Z,71.48
2023-06-25T01:36:19.705Z,71.73
2023-06-25T01:38:46.384Z,71.90
2023-06-25T01:41:13.764Z,71.52
2023-06-25T01:43:40.421Z,71.37
2023-06-25T01:46:07.032Z,71.32
2023-06-25T01:48:34.606Z,71.90
2023-06-25T01:51:01.297Z,72.48
2023-06-25T01:53:27.982Z,72.14
2023-06-25T01:55:54.582Z,71.73
2023-06-25T01:58:21.319Z,72.16
2023-06-25T02:00:48.858Z,72.88
2023-06-25T02:03:15.539Z,72.99
2023-06-25T02:05:43.217Z,73.45
2023-06-25T02:08:10.154Z,73.46
2023-06-25T02:10:36.867Z,74.05
2023-06-25T02:13:04.286Z,73.47
2023-06-25T02:15:32.388Z,74.37
2023-06-25T02:17:59.224Z,73.94
2023-06-25T02:20:25.897Z,75.47
2023-06-25T02:22:53.097Z,75.43
2023-06-25T02:25:19.744Z,74.65
2023-06-25T02:27:46.413Z,75.07
2023-06-25T02:30:13.674Z,75.80
2023-06-25T02:32:40.304Z,75.52
2023-06-25T02:35:07.363Z,76.35
2023-06-25T02:37:33.924Z,76.67
2023-06-25T02:40:00.591Z,77.13
2023-06-25T02:42:27.250Z,75.95
2023-06-25T02:44:53.816Z,76.91
2023-06-25T02:47:20.390Z,77.03
2023-06-25T02:49:47.026Z,76.47
2023-06-25T02:52:13.660Z,77.08
2023-06-25T02:54:40.228Z,76.74
2023-06-25T02:57:06.807Z,77.15
2023-06-25T02:59:33.367Z,77.10
2023-06-25T03:01:59.993Z,77.85
2023-06-25T03:04:26.671Z,77.78
2023-06-25T03:06:53.331Z,77.96
2023-06-25T03:09:19.982Z,77.79
2023-06-25T03:11:46.698Z,77.54
2023-06-25T03:14:29.813Z,77.30
2023-06-25T03:17:01.229Z,77.18
2023-06-25T03:19:27.860Z,77.46
2023-06-25T03:21:54.447Z,77.52
2023-06-25T03:24:21.053Z,77.46
2023-06-25T03:26:47.703Z,76.88
2023-06-25T03:29:14.400Z,76.76
2023-06-25T03:31:40.981Z,76.03
2023-06-25T03:34:07.637Z,76.28
2023-06-25T03:36:34.535Z,76.62
2023-06-25T03:39:01.367Z,76.34
2023-06-25T03:41:27.973Z,76.22
2023-06-25T03:43:54.533Z,75.86
2023-06-25T03:46:21.174Z,76.23
2023-06-25T03:48:47.791Z,75.72
2023-06-25T03:51:14.462Z,75.55
2023-06-25T03:53:41.510Z,75.25
2023-06-25T03:56:08.282Z,75.18
2023-06-25T03:58:35.508Z,74.73
2023-06-25T04:01:02.179Z,74.50
2023-06-25T04:03:28.892Z,74.26
2023-06-25T04:05:55.461Z,74.23
2023-06-25T04:08:22.168Z,74.36
2023-06-25T04:10:48.750Z,73.62
2023-06-25T04:13:15.350Z,73.80
2023-06-25T04:15:41.968Z,73.40
2023-06-25T04:18:08.665Z,73.06
2023-06-25T04:20:35.410Z,73.36
2023-06-25T04:23:02.059Z,73.13
2023-06-25T04:25:28.632Z,72.77
2023-06-25T04:27:56.768Z,72.72
2023-06-25T04:30:23.605Z,72.22
2023-06-25T04:32:51.086Z,72.06
2023-06-25T04:35:18.603Z,71.85
2023-06-25T04:37:45.326Z,71.48
2023-06-25T04:40:13.014Z,71.13
2023-06-25T04:42:39.619Z,70.96
2023-06-25T04:45:07.040Z,70.04
2023-06-25T04:47:33.726Z,70.01
2023-06-25T04:50:00.394Z,69.86
2023-06-25T04:52:27.128Z,69.27
2023-06-25T04:54:53.717Z,69.32
2023-06-25T04:57:20.299Z,68.82
2023-06-25T04:59:46.962Z,68.44
2023-06-25T05:02:13.587Z,68.04
2023-06-25T05:04:40.160Z,68.30
2023-06-25T05:07:07.081Z,67.91
2023-06-25T05:09:34.071Z,66.94
2023-06-25T05:12:00.669Z,67.46
2023-06-25T05:14:28.260Z,67.23
2023-06-25T05:16:54.876Z,67.03
2023-06-25T05:19:21.445Z,66.91
2023-06-25T05:21:48.036Z,66.30
2023-06-25T05:24:14.730Z,65.39
2023-06-25T05:26:41.332Z,65.71
2023-06-25T05:29:08.093Z,65.27
2023-06-25T05:31:34.774Z,64.66
2023-06-25T05:34:01.385Z,64.13
2023-06-25T05:36:30.097Z,64.11
2023-06-25T05:38:56.793Z,63.64
2023-06-25T05:41:23.402Z,63.47
2023-06-25T05:43:50.020Z,63.82
2023-06-25T05:46:16.921Z,62.42
2023-06-25T05:48:45.136Z,63.32
2023-06-25T05:51:11.805Z,62.58
2023-06-25T05:53:41.050Z,61.99
2023-06-25T05:56:07.872Z,62.46
2023-06-25T05:58:38.020Z,61.91
2023-06-25T06:01:05.227Z,61.89
2023-06-25T06:03:31.889Z,60.54
2023-06-25T06:05:59.010Z,61.67
2023-06-25T06:08:25.936Z,61.43
2023-06-25T06:10:52.627Z,60.52
2023-06-25T06:13:19.281Z,60.72
2023-06-25T06:15:45.861Z,61.12
2023-06-25T06:18:12.905Z,60.73
2023-06-25T06:20:39.580Z,61.01
2023-06-25T06:23:06.208Z,60.53
2023-06-25T06:25:32.832Z,60.95
2023-06-25T06:27:59.436Z,60.65
2023-06-25T06:30:26.045Z,60.79
2023-06-25T06:32:53.207Z,59.72
2023-06-25T06:35:20.322Z,60.55
2023-06-25T06:37:47.160Z,60.13
2023-06-25T06:40:13.813Z,59.85
2023-06-25T06:42:40.401Z,59.37
2023-06-25T06:45:07.367Z,58.71
2023-06-25T06:47:34.031Z,58.85
2023-06-25T06:50:01.599Z,58.80
2023-06-25T06:52:28.501Z,58.88
2023-06-25T06:54:55.521Z,58.41
2023-06-25T06:57:22.131Z,57.80
2023-06-25T06:59:48.805Z,57.53
2023-06-25T07:02:15.406Z,58.32
2023-06-25T07:04:42.034Z,57.52
2023-06-25T07:07:08.635Z,57.56
2023-06-25T07:09:36.514Z,56.95
2023-06-25T07:12:03.376Z,57.03
2023-06-25T07:14:30.038Z,55.71
2023-06-25T07:16:57.205Z,55.55
2023-06-25T07:19:23.831Z,56.66
2023-06-25T07:21:50.408Z,54.83
2023-06-25T07:24:17.026Z,55.85
2023-06-25T07:26:43.627Z,56.22
2023-06-25T07:29:10.217Z,55.90
2023-06-25T07:31:36.825Z,55.73
2023-06-25T07:34:03.503Z,54.91
2023-06-25T07:36:30.100Z,55.12
2023-06-25T07:38:58.859Z,53.72
2023-06-25T07:41:25.492Z,53.63
2023-06-25T07:43:52.060Z,53.78
2023-06-25T07:46:18.674Z,52.87
2023-06-25T07:48:45.336Z,53.58
2023-06-25T07:51:11.926Z,53.73
2023-06-25T07:53:38.726Z,53.72
2023-06-25T07:56:05.620Z,52.85
2023-06-25T07:58:34.550Z,53.68
2023-06-25T08:01:01.283Z,53.16
2023-06-25T08:03:28.079Z,52.89
2023-06-25T08:05:54.903Z,52.33
2023-06-25T08:08:21.551Z,51.27
2023-06-25T08:10:52.433Z,51.55
2023-06-25T08:13:19.993Z,51.90
2023-06-25T08:15:46.612Z,52.00
2023-06-25T08:18:13.219Z,52.32
2023-06-25T08:20:40.475Z,51.40
2023-06-25T08:23:07.196Z,50.75
2023-06-25T08:25:33.941Z,50.21
2023-06-25T08:28:00.547Z,49.83
2023-06-25T08:30:27.134Z,50.13
2023-06-25T08:32:53.893Z,49.56
2023-06-25T08:35:20.489Z,49.60
2023-06-25T08:37:47.141Z,49.27
2023-06-25T08:40:14.200Z,49.56
2023-06-25T08:42:44.737Z,48.00
2023-06-25T08:45:12.286Z,48.47
2023-06-25T08:47:40.779Z,48.80
2023-06-25T08:50:10.607Z,48.10
2023-06-25T08:52:39.645Z,47.00
2023-06-25T08:55:09.703Z,47.43
2023-06-25T08:57:37.562Z,46.87
2023-06-25T09:02:46.148Z,47.65
2023-06-25T09:05:28.813Z,46.84
2023-06-25T09:07:56.466Z,46.09
2023-06-25T09:10:23.875Z,45.81
2023-06-25T09:12:52.227Z,46.17
2023-06-25T09:15:23.159Z,46.68
2023-06-25T09:17:50.703Z,46.07
2023-06-25T09:20:17.388Z,46.61
2023-06-25T09:22:52.201Z,43.86
2023-06-25T09:25:20.342Z,44.43
2023-06-25T09:27:48.193Z,45.13
2023-06-25T09:30:14.810Z,45.78
2023-06-25T09:32:54.785Z,45.97
2023-06-25T09:35:26.766Z,43.18
2023-06-25T09:37:54.277Z,44.21
2023-06-25T09:40:21.274Z,43.19
2023-06-25T09:42:54.021Z,44.30
2023-06-25T09:45:22.689Z,44.82
2023-06-25T09:47:51.791Z,45.01
2023-06-25T09:50:49.995Z,43.56
2023-06-25T09:53:22.885Z,44.70
2023-06-25T09:55:51.201Z,42.38
2023-06-25T09:58:19.414Z,43.16
2023-06-25T10:00:46.238Z,41.83
2023-06-25T10:03:14.961Z,42.04
2023-06-25T10:05:42.107Z,42.01
2023-06-25T10:08:09.818Z,43.33
2023-06-25T10:10:36.674Z,42.99
2023-06-25T10:18:43.605Z,40.35
2023-06-25T10:21:19.295Z,41.09
2023-06-25T10:23:57.583Z,40.77
2023-06-25T10:26:31.616Z,39.97
2023-06-25T10:29:05.893Z,39.68
2023-06-25T10:31:44.160Z,39.95
2023-06-25T10:34:11.842Z,40.75
2023-06-25T10:36:49.857Z,40.43
2023-06-25T10:39:16.573Z,40.83
2023-06-25T10:41:47.973Z,42.54
2023-06-25T10:44:14.603Z,42.03
2023-06-25T10:46:41.207Z,41.38
2023-06-25T10:49:07.909Z,41.58
2023-06-25T10:51:35.173Z,41.79
2023-06-25T10:54:01.805Z,41.94
2023-06-25T10:56:28.432Z,41.61
2023-06-25T10:58:56.611Z,40.97
2023-06-25T11:01:23.383Z,40.07
2023-06-25T11:03:50.090Z,40.46
2023-06-25T11:06:17.245Z,39.81
2023-06-25T11:08:44.015Z,40.69
2023-06-25T11:11:11.489Z,40.02
2023-06-25T11:13:38.228Z,39.38
2023-06-25T11:16:06.394Z,38.46
2023-06-25T11:18:33.971Z,39.05
2023-06-25T11:21:05.039Z,39.96
2023-06-25T11:23:32.899Z,39.84
2023-06-25T11:26:04.368Z,40.75
2023-06-25T11:28:31.231Z,39.87
2023-06-25T11:31:01.755Z,36.83
2023-06-25T11:33:28.473Z,38.42
2023-06-25T11:36:15.243Z,38.20
2023-06-25T11:38:44.931Z,38.64
2023-06-25T11:41:11.544Z,38.80
2023-06-25T11:43:39.750Z,38.28
2023-06-25T11:46:07.063Z,39.55
2023-06-25T11:48:34.643Z,39.12
2023-06-25T11:51:07.831Z,38.74
2023-06-25T11:53:34.698Z,38.38
2023-06-25T11:56:01.516Z,38.68
2023-06-25T11:58:28.995Z,39.97
2023-06-25T12:00:55.853Z,40.00
2023-06-25T12:03:22.545Z,39.48
2023-06-25T12:05:49.234Z,38.42
2023-06-25T12:08:15.899Z,38.99
2023-06-25T12:10:42.559Z,38.49
2023-06-25T12:13:09.133Z,37.96
2023-06-25T12:15:35.948Z,39.37
2023-06-25T12:18:02.822Z,40.32
2023-06-25T12:20:29.528Z,39.60
2023-06-25T12:22:56.129Z,39.21
2023-06-25T12:25:22.761Z,38.69
2023-06-25T12:27:49.348Z,38.01
2023-06-25T12:30:16.023Z,38.75
2023-06-25T12:32:42.714Z,39.35
2023-06-25T12:35:10.579Z,38.18
2023-06-25T12:37:37.269Z,38.71
2023-06-25T12:40:06.669Z,38.27
2023-06-25T12:42:33.296Z,38.41
2023-06-25T12:44:59.917Z,39.27
2023-06-25T12:47:26.549Z,40.19
2023-06-25T12:49:53.185Z,40.54
2023-06-25T12:52:19.821Z,40.57
2023-06-25T12:54:46.384Z,39.55
2023-06-25T12:57:13.044Z,39.64
2023-06-25T12:59:39.676Z,39.74
2023-06-25T13:02:06.966Z,40.53
2023-06-25T13:04:33.817Z,41.02
2023-06-25T13:07:00.629Z,40.09
2023-06-25T13:09:28.698Z,38.91
2023-06-25T13:11:55.552Z,39.27
2023-06-25T13:14:22.135Z,39.71
2023-06-25T13:16:48.726Z,39.13
2023-06-25T13:19:16.740Z,38.79
2023-06-25T13:21:43.340Z,39.13
2023-06-25T13:24:09.946Z,38.96
2023-06-25T13:26:36.589Z,38.79
2023-06-25T13:29:03.244Z,38.86
2023-06-25T13:31:29.898Z,38.10
2023-06-25T13:33:56.670Z,37.82
2023-06-25T13:36:23.250Z,38.17
2023-06-25T13:38:49.877Z,38.80
2023-06-25T13:41:16.484Z,36.73
2023-06-25T13:43:45.122Z,36.87
2023-06-25T13:46:12.103Z,37.46
2023-06-25T13:48:38.768Z,37.44
2023-06-25T13:51:05.415Z,37.14
2023-06-25T13:53:32.109Z,36.27
2023-06-25T13:55:58.806Z,35.95
2023-06-25T13:58:25.471Z,36.67
2023-06-25T14:00:53.427Z,35.77
2023-06-25T14:03:20.543Z,36.23
2023-06-25T14:05:47.440Z,36.13
2023-06-25T14:08:14.253Z,36.03
2023-06-25T14:10:42.008Z,35.98
2023-06-25T14:13:10.554Z,36.20
2023-06-25T14:15:41.752Z,36.89
2023-06-25T14:18:10.074Z,36.37
2023-06-25T14:20:36.786Z,37.95
2023-06-25T14:23:03.426Z,36.99
2023-06-25T14:25:30.185Z,36.65
2023-06-25T14:27:58.614Z,36.51
2023-06-25T14:30:25.280Z,36.56
2023-06-25T14:32:52.005Z,35.70
2023-06-25T14:35:18.677Z,35.85
2023-06-25T14:37:45.588Z,36.34
2023-06-25T14:40:12.255Z,36.35
2023-06-25T14:42:39.046Z,35.63
2023-06-25T14:45:06.057Z,35.70
2023-06-25T14:47:33.654Z,35.54
2023-06-25T14:50:00.917Z,33.55
2023-06-25T14:52:28.849Z,33.19
2023-06-25T14:54:55.705Z,33.75
2023-06-25T14:57:22.388Z,33.42
2023-06-25T14:59:48.980Z,35.09
2023-06-25T15:02:15.708Z,36.24
2023-06-25T15:04:48.893Z,35.84
2023-06-25T15:07:19.851Z,34.93
2023-06-25T15:09:46.870Z,35.59
2023-06-25T15:12:13.472Z,34.29
2023-06-25T15:14:40.094Z,34.41
2023-06-25T15:17:06.793Z,34.14
2023-06-25T15:19:34.105Z,33.69
2023-06-25T15:22:00.881Z,34.14
2023-06-25T15:24:27.487Z,34.69
2023-06-25T15:26:54.137Z,35.92
2023-06-25T15:29:20.773Z,36.57
2023-06-25T15:31:47.395Z,37.44
2023-06-25T15:34:14.055Z,37.95
2023-06-25T15:36:40.686Z,37.93
2023-06-25T15:39:07.393Z,37.61
2023-06-25T15:41:34.727Z,38.29
2023-06-25T15:44:01.376Z,37.37
2023-06-25T15:46:28.052Z,37.46
2023-06-25T15:48:55.020Z,37.10
2023-06-25T15:51:21.812Z,36.96
2023-06-25T15:53:48.461Z,36.94
2023-06-25T15:56:15.040Z,36.45
2023-06-25T15:58:42.173Z,36.61
2023-06-25T16:01:08.856Z,35.83
2023-06-25T16:03:35.747Z,35.84
2023-06-25T16:06:02.488Z,35.76
2023-06-25T16:08:29.158Z,35.83
2023-06-25T16:10:55.880Z,35.92
2023-06-25T16:13:22.570Z,36.20
2023-06-25T16:15:49.220Z,36.68
2023-06-25T16:18:15.873Z,36.38
2023-06-25T16:20:42.721Z,36.49
2023-06-25T16:23:09.372Z,36.14
2023-06-25T16:25:36.455Z,36.60
2023-06-25T16:28:03.286Z,34.50
2023-06-25T16:30:29.884Z,35.27
2023-06-25T16:32:56.726Z,35.51
2023-06-25T16:35:23.539Z,35.61
2023-06-25T16:37:50.264Z,35.82
2023-06-25T16:40:16.910Z,35.58
2023-06-25T16:42:43.542Z,35.48
2023-06-25T16:45:10.357Z,36.34
2023-06-25T16:47:37.139Z,35.46
2023-06-25T16:50:03.966Z,35.96
2023-06-25T16:52:30.583Z,35.52
2023-06-25T16:54:57.683Z,34.38
2023-06-25T16:57:24.288Z,34.05
2023-06-25T16:59:50.959Z,33.17
2023-06-25T17:02:17.785Z,32.85
2023-06-25T17:04:44.525Z,32.93
2023-06-25T17:07:11.235Z,32.36
2023-06-25T17:09:38.087Z,32.48
2023-06-25T17:12:05.876Z,30.90
2023-06-25T17:14:33.276Z,30.71
2023-06-25T17:16:59.891Z,30.87
2023-06-25T17:19:26.501Z,30.84
2023-06-25T17:21:53.188Z,30.59
2023-06-25T17:24:19.848Z,30.76
2023-06-25T17:26:46.511Z,30.74
2023-06-25T17:29:13.149Z,30.71
2023-06-25T17:31:39.972Z,30.85
2023-06-25T17:34:06.670Z,31.51
2023-06-25T17:36:33.301Z,31.95
2023-06-25T17:39:00.689Z,31.16
2023-06-25T17:41:28.126Z,31.49
2023-06-25T17:43:57.097Z,32.14
2023-06-25T17:46:23.933Z,32.99
2023-06-25T17:48:50.782Z,36.34
2023-06-25T17:51:17.493Z,39.72
2023-06-25T17:53:44.242Z,41.47
2023-06-25T17:56:12.506Z,43.91
2023-06-25T17:58:39.199Z,44.41
2023-06-25T18:01:05.948Z,45.00
2023-06-25T18:03:35.794Z,46.72
2023-06-25T18:06:02.625Z,47.57
2023-06-25T18:08:29.243Z,48.41
2023-06-25T18:10:55.867Z,49.03
2023-06-25T18:13:22.915Z,50.26
2023-06-25T18:15:49.829Z,50.63
2023-06-25T18:18:22.195Z,50.64
2023-06-25T18:20:49.017Z,51.87
2023-06-25T18:23:15.968Z,51.78
2023-06-25T18:25:42.901Z,51.96
2023-06-25T18:28:09.813Z,52.01
2023-06-25T18:30:38.310Z,52.63
2023-06-25T18:33:05.862Z,54.40
2023-06-25T18:35:32.675Z,54.35
2023-06-25T18:37:59.255Z,55.68
2023-06-25T18:40:34.224Z,55.67
2023-06-25T18:43:00.833Z,55.20
2023-06-25T18:45:27.407Z,55.55
2023-06-25T18:47:54.039Z,56.64
2023-06-25T18:50:21.674Z,56.88
2023-06-25T18:52:48.568Z,57.20
2023-06-25T18:55:15.373Z,57.22
2023-06-25T18:57:41.960Z,57.18
2023-06-25T19:00:10.735Z,56.74
2023-06-25T19:02:37.490Z,56.88
2023-06-25T19:05:04.500Z,56.89
2023-06-25T19:07:33.040Z,57.44
2023-06-25T19:10:00.941Z,57.97
2023-06-25T19:12:27.615Z,58.96
2023-06-25T19:14:54.272Z,58.73
2023-06-25T19:17:20.953Z,59.11
2023-06-25T19:19:47.656Z,59.49
2023-06-25T19:22:14.398Z,59.00
2023-06-25T19:24:40.992Z,58.91
2023-06-25T19:27:08.702Z,58.39
2023-06-25T19:29:35.370Z,58.54
2023-06-25T19:32:02.006Z,58.59
2023-06-25T19:34:28.625Z,58.64
2023-06-25T19:36:55.380Z,58.15
2023-06-25T19:39:21.973Z,57.87
2023-06-25T19:41:48.646Z,57.87
2023-06-25T19:44:15.342Z,57.83
2023-06-25T19:46:41.999Z,57.23
2023-06-25T19:49:09.957Z,57.40
2023-06-25T19:51:39.635Z,57.53
2023-06-25T19:54:06.886Z,57.38
2023-06-25T19:56:33.474Z,57.77
2023-06-25T19:59:01.390Z,58.24
2023-06-25T20:01:28.317Z,58.51
2023-06-25T20:03:54.968Z,58.55
2023-06-25T20:06:22.562Z,58.19
2023-06-25T20:08:49.234Z,58.61
2023-06-25T20:11:16.371Z,58.42
2023-06-25T20:13:43.039Z,58.25
2023-06-25T20:16:09.700Z,58.38
2023-06-25T20:18:36.306Z,58.56
2023-06-25T20:21:03.103Z,58.17
2023-06-25T20:23:29.969Z,58.50
2023-06-25T20:25:56.767Z,58.25
2023-06-25T20:28:23.418Z,58.16
2023-06-25T20:30:50.021Z,57.94
2023-06-25T20:33:16.702Z,57.83
2023-06-25T20:35:43.363Z,57.90
2023-06-25T20:38:09.988Z,57.43
2023-06-25T20:40:36.912Z,57.46
2023-06-25T20:43:06.213Z,56.97
2023-06-25T20:45:32.898Z,57.17
2023-06-25T20:47:59.526Z,56.43
2023-06-25T20:50:26.225Z,57.04
2023-06-25T20:52:52.994Z,57.48
2023-06-25T20:55:19.589Z,57.86
2023-06-25T20:57:46.239Z,58.45
2023-06-25T21:00:13.352Z,58.32
2023-06-25T21:02:40.172Z,58.79
2023-06-25T21:05:06.980Z,58.70
2023-06-25T21:07:34.325Z,58.78
2023-06-25T21:10:00.967Z,58.85
2023-06-25T21:12:27.570Z,59.12
2023-06-25T21:14:54.157Z,59.32
2023-06-25T21:17:20.851Z,59.07
2023-06-25T21:19:47.456Z,59.51
2023-06-25T21:22:14.118Z,59.73
2023-06-25T21:24:40.695Z,59.60
2023-06-25T21:27:07.385Z,59.75
2023-06-25T21:29:33.981Z,59.75
2023-06-25T21:32:00.629Z,59.62
2023-06-25T21:34:27.230Z,59.04
2023-06-25T21:36:53.843Z,59.21
2023-06-25T21:39:20.437Z,59.52
2023-06-25T21:41:47.081Z,59.52
2023-06-25T21:44:13.710Z,59.79
2023-06-25T21:46:43.196Z,59.95
2023-06-25T21:49:10.500Z,59.56
2023-06-25T21:51:37.149Z,59.35
2023-06-25T21:54:03.742Z,59.00
2023-06-25T21:56:30.530Z,58.73
2023-06-25T21:58:57.123Z,59.40
2023-06-25T22:01:23.805Z,59.15
2023-06-25T22:03:50.502Z,59.28
2023-06-25T22:06:17.506Z,59.64
2023-06-25T22:08:44.090Z,59.65
2023-06-25T22:11:10.693Z,59.83
2023-06-25T22:13:39.204Z,60.04
2023-06-25T22:16:06.375Z,60.17
2023-06-25T22:18:33.048Z,60.40
2023-06-25T22:21:01.564Z,60.03
2023-06-25T22:23:28.269Z,60.89
2023-06-25T22:25:54.906Z,61.10
2023-06-25T22:28:21.481Z,60.72
2023-06-25T22:30:48.082Z,59.36
2023-06-25T22:33:14.745Z,59.41
2023-06-25T22:35:41.378Z,59.06
2023-06-25T22:38:08.464Z,59.11
2023-06-25T22:40:35.203Z,59.26
2023-06-25T22:43:02.685Z,59.62
2023-06-25T22:45:29.448Z,59.50
2023-06-25T22:47:56.317Z,59.47
2023-06-25T22:50:23.852Z,59.59
2023-06-25T22:52:50.445Z,59.46
2023-06-25T22:55:17.214Z,59.59
2023-06-25T22:57:44.488Z,59.13
2023-06-25T23:00:14.503Z,59.08
2023-06-25T23:02:41.230Z,59.28
2023-06-25T23:05:08.570Z,59.17
2023-06-25T23:07:35.218Z,59.00
2023-06-25T23:10:01.862Z,59.14
2023-06-25T23:12:28.538Z,59.31
2023-06-25T23:14:55.132Z,59.50
2023-06-25T23:17:22.209Z,59.28
2023-06-25T23:19:50.250Z,59.13
2023-06-25T23:22:16.873Z,59.22
2023-06-25T23:24:45.399Z,59.24
2023-06-25T23:27:14.964Z,59.10
2023-06-25T23:29:41.598Z,59.14
2023-06-25T23:32:10.052Z,59.11
2023-06-25T23:34:36.753Z,59.40
2023-06-25T23:37:04.349Z,59.40
2023-06-25T23:39:34.227Z,59.50
2023-06-25T23:42:01.006Z,59.72
2023-06-25T23:44:27.609Z,59.66
2023-06-25T23:46:54.200Z,59.87
2023-06-25T23:49:20.832Z,59.82
2023-06-25T23:51:47.402Z,59.94
2023-06-25T23:54:14.033Z,60.49
2023-06-25T23:56:40.625Z,60.56
2023-06-25T23:59:07.329Z,61.24
